sensor_id;sensor_type;location;lat;lon;timestamp;pressure;altitude;pressure_sealevel;temperature;humidity
38780;BME280;29273;49.962;9.768;2022-12-29T00:01:48;99157.69;;;9.92;60.62
38780;BME280;29273;49.962;9.768;2022-12-29T00:04:14;99150.34;;;9.94;60.78
38780;BME280;29273;49.962;9.768;2022-12-29T00:06:41;99152.19;;;9.93;60.93
38780;BME280;29273;49.962;9.768;2022-12-29T00:09:07;99136.31;;;9.93;60.74
38780;BME280;29273;49.962;9.768;2022-12-29T00:11:33;99139.75;;;9.94;60.76
38780;BME280;29273;49.962;9.768;2022-12-29T00:13:59;99137.72;;;9.96;60.84
38780;BME280;29273;49.962;9.768;2022-12-29T00:16:44;99140.97;;;9.98;60.91
38780;BME280;29273;49.962;9.768;2022-12-29T00:19:11;99133.03;;;9.98;60.84
38780;BME280;29273;49.962;9.768;2022-12-29T00:21:58;99127.53;;;9.99;60.92
38780;BME280;29273;49.962;9.768;2022-12-29T00:24:43;99126.28;;;10.02;61.02
38780;BME280;29273;49.962;9.768;2022-12-29T00:27:30;99134.00;;;10.04;60.77
38780;BME280;29273;49.962;9.768;2022-12-29T00:30:19;99124.19;;;10.11;61.73
38780;BME280;29273;49.962;9.768;2022-12-29T00:33:12;99121.09;;;10.14;61.77
38780;BME280;29273;49.962;9.768;2022-12-29T00:36:07;99116.22;;;10.17;61.88
38780;BME280;29273;49.962;9.768;2022-12-29T00:38:38;99113.31;;;10.19;61.35
38780;BME280;29273;49.962;9.768;2022-12-29T00:41:24;99118.41;;;10.21;61.33
38780;BME280;29273;49.962;9.768;2022-12-29T00:44:11;99104.31;;;10.27;61.41
38780;BME280;29273;49.962;9.768;2022-12-29T00:46:40;99106.75;;;10.28;61.22
38780;BME280;29273;49.962;9.768;2022-12-29T00:49:08;99103.47;;;10.33;61.36
38780;BME280;29273;49.962;9.768;2022-12-29T00:51:53;99105.28;;;10.32;61.24
38780;BME280;29273;49.962;9.768;2022-12-29T00:54:19;99104.28;;;10.33;61.24
38780;BME280;29273;49.962;9.768;2022-12-29T00:56:46;99115.25;;;10.37;61.10
38780;BME280;29273;49.962;9.768;2022-12-29T00:59:13;99107.09;;;10.39;60.87
38780;BME280;29273;49.962;9.768;2022-12-29T01:01:38;99111.16;;;10.41;61.09
38780;BME280;29273;49.962;9.768;2022-12-29T01:04:05;99113.13;;;10.46;61.26
38780;BME280;29273;49.962;9.768;2022-12-29T01:06:31;99115.78;;;10.46;61.11
38780;BME280;29273;49.962;9.768;2022-12-29T01:08:57;99124.91;;;10.50;61.24
38780;BME280;29273;49.962;9.768;2022-12-29T01:11:41;99124.69;;;10.51;61.28
38780;BME280;29273;49.962;9.768;2022-12-29T01:14:06;99114.69;;;10.53;61.58
38780;BME280;29273;49.962;9.768;2022-12-29T01:16:32;99122.78;;;10.59;61.39
38780;BME280;29273;49.962;9.768;2022-12-29T01:18:59;99124.19;;;10.61;61.27
38780;BME280;29273;49.962;9.768;2022-12-29T01:21:25;99128.03;;;10.65;61.78
38780;BME280;29273;49.962;9.768;2022-12-29T01:23:51;99118.00;;;10.67;61.30
38780;BME280;29273;49.962;9.768;2022-12-29T01:26:17;99122.06;;;10.70;61.87
38780;BME280;29273;49.962;9.768;2022-12-29T01:28:43;99126.13;;;10.72;61.60
38780;BME280;29273;49.962;9.768;2022-12-29T01:31:10;99112.66;;;10.74;61.68
38780;BME280;29273;49.962;9.768;2022-12-29T01:33:36;99124.66;;;10.77;61.82
38780;BME280;29273;49.962;9.768;2022-12-29T01:36:03;99118.50;;;10.83;62.49
38780;BME280;29273;49.962;9.768;2022-12-29T01:38:30;99118.50;;;10.83;62.50
38780;BME280;29273;49.962;9.768;2022-12-29T01:40:55;99108.25;;;10.86;62.68
38780;BME280;29273;49.962;9.768;2022-12-29T01:43:21;99116.78;;;10.88;62.80
38780;BME280;29273;49.962;9.768;2022-12-29T01:45:51;99116.50;;;10.97;63.32
38780;BME280;29273;49.962;9.768;2022-12-29T01:48:19;99124.28;;;10.91;63.46
38780;BME280;29273;49.962;9.768;2022-12-29T01:50:53;99123.78;;;11.01;63.67
38780;BME280;29273;49.962;9.768;2022-12-29T01:53:22;99118.50;;;11.01;63.97
38780;BME280;29273;49.962;9.768;2022-12-29T01:55:52;99115.03;;;11.01;64.02
38780;BME280;29273;49.962;9.768;2022-12-29T01:58:23;99113.19;;;11.01;64.34
38780;BME280;29273;49.962;9.768;2022-12-29T02:00:50;99115.84;;;11.01;64.22
38780;BME280;29273;49.962;9.768;2022-12-29T02:03:18;99114.13;;;11.07;64.51
38780;BME280;29273;49.962;9.768;2022-12-29T02:05:49;99107.88;;;11.01;64.20
38780;BME280;29273;49.962;9.768;2022-12-29T02:08:19;99104.81;;;11.04;64.17
38780;BME280;29273;49.962;9.768;2022-12-29T02:10:46;99112.75;;;11.04;64.19
38780;BME280;29273;49.962;9.768;2022-12-29T02:13:15;99110.47;;;11.08;64.21
38780;BME280;29273;49.962;9.768;2022-12-29T02:18:43;99105.16;;;11.08;64.59
38780;BME280;29273;49.962;9.768;2022-12-29T02:21:40;99098.66;;;11.04;64.69
38780;BME280;29273;49.962;9.768;2022-12-29T02:26:59;99088.69;;;11.06;64.74
38780;BME280;29273;49.962;9.768;2022-12-29T02:34:58;99095.59;;;11.07;65.56
38780;BME280;29273;49.962;9.768;2022-12-29T02:40:26;99092.50;;;11.10;65.68
38780;BME280;29273;49.962;9.768;2022-12-29T02:46:16;99092.28;;;11.11;65.54
38780;BME280;29273;49.962;9.768;2022-12-29T02:49:10;99089.84;;;11.10;65.68
38780;BME280;29273;49.962;9.768;2022-12-29T02:51:58;99102.66;;;11.13;65.58
38780;BME280;29273;49.962;9.768;2022-12-29T02:54:26;99104.50;;;11.13;65.49
38780;BME280;29273;49.962;9.768;2022-12-29T02:59:50;99111.09;;;11.22;65.73
38780;BME280;29273;49.962;9.768;2022-12-29T03:02:33;99109.25;;;11.22;65.77
38780;BME280;29273;49.962;9.768;2022-12-29T03:11:11;99105.59;;;11.23;66.06
38780;BME280;29273;49.962;9.768;2022-12-29T03:14:09;99102.50;;;11.26;66.13
38780;BME280;29273;49.962;9.768;2022-12-29T03:17:05;99099.03;;;11.26;66.01
38780;BME280;29273;49.962;9.768;2022-12-29T03:19:40;99092.91;;;11.25;66.19
38780;BME280;29273;49.962;9.768;2022-12-29T03:22:17;99091.66;;;11.28;66.01
38780;BME280;29273;49.962;9.768;2022-12-29T03:25:28;99086.16;;;11.29;66.06
38780;BME280;29273;49.962;9.768;2022-12-29T03:27:55;99089.00;;;11.28;66.06
38780;BME280;29273;49.962;9.768;2022-12-29T03:30:22;99078.06;;;11.24;66.06
38780;BME280;29273;49.962;9.768;2022-12-29T03:32:51;99071.25;;;11.28;66.11
38780;BME280;29273;49.962;9.768;2022-12-29T03:35:22;99062.88;;;11.32;65.96
38780;BME280;29273;49.962;9.768;2022-12-29T03:37:59;99057.56;;;11.32;66.08
38780;BME280;29273;49.962;9.768;2022-12-29T03:40:31;99067.59;;;11.29;65.98
38780;BME280;29273;49.962;9.768;2022-12-29T03:42:57;99065.16;;;11.28;66.05
38780;BME280;29273;49.962;9.768;2022-12-29T03:45:23;99058.81;;;11.29;65.89
38780;BME280;29273;49.962;9.768;2022-12-29T03:47:50;99055.72;;;11.32;66.11
38780;BME280;29273;49.962;9.768;2022-12-29T03:50:17;99056.75;;;11.31;66.02
38780;BME280;29273;49.962;9.768;2022-12-29T03:52:43;99057.78;;;11.30;65.91
38780;BME280;29273;49.962;9.768;2022-12-29T03:55:08;99063.88;;;11.30;65.99
38780;BME280;29273;49.962;9.768;2022-12-29T03:57:34;99066.53;;;11.30;65.94
38780;BME280;29273;49.962;9.768;2022-12-29T04:00:05;99058.38;;;11.32;65.99
38780;BME280;29273;49.962;9.768;2022-12-29T04:02:40;99055.94;;;11.30;66.14
38780;BME280;29273;49.962;9.768;2022-12-29T04:05:07;99066.53;;;11.30;65.98
38780;BME280;29273;49.962;9.768;2022-12-29T04:07:33;99070.00;;;11.31;66.20
38780;BME280;29273;49.962;9.768;2022-12-29T04:10:00;99058.38;;;11.32;66.40
38780;BME280;29273;49.962;9.768;2022-12-29T04:12:27;99054.91;;;11.32;66.58
38780;BME280;29273;49.962;9.768;2022-12-29T04:14:52;99057.34;;;11.33;66.54
38780;BME280;29273;49.962;9.768;2022-12-29T04:17:18;99051.81;;;11.35;66.58
38780;BME280;29273;49.962;9.768;2022-12-29T04:19:45;99057.91;;;11.35;66.47
38780;BME280;29273;49.962;9.768;2022-12-29T04:22:11;99054.81;;;11.38;66.69
38780;BME280;29273;49.962;9.768;2022-12-29T04:24:37;99052.97;;;11.39;66.54
38780;BME280;29273;49.962;9.768;2022-12-29T04:27:02;99038.69;;;11.40;66.63
38780;BME280;29273;49.962;9.768;2022-12-29T04:29:48;99042.97;;;11.41;66.68
38780;BME280;29273;49.962;9.768;2022-12-29T04:32:29;99046.41;;;11.41;66.73
38780;BME280;29273;49.962;9.768;2022-12-29T04:34:55;99042.50;;;11.44;66.55
38780;BME280;29273;49.962;9.768;2022-12-29T04:37:21;99033.75;;;11.43;66.68
38780;BME280;29273;49.962;9.768;2022-12-29T04:39:47;99040.66;;;11.44;66.59
38780;BME280;29273;49.962;9.768;2022-12-29T04:42:12;99034.78;;;11.42;66.49
38780;BME280;29273;49.962;9.768;2022-12-29T04:44:38;99025.56;;;11.45;66.45
38780;BME280;29273;49.962;9.768;2022-12-29T04:47:13;99012.53;;;11.43;66.31
38780;BME280;29273;49.962;9.768;2022-12-29T04:50:00;99019.69;;;11.43;65.70
38780;BME280;29273;49.962;9.768;2022-12-29T04:52:58;99015.63;;;11.40;66.06
38780;BME280;29273;49.962;9.768;2022-12-29T04:55:25;99011.59;;;11.38;65.77
38780;BME280;29273;49.962;9.768;2022-12-29T04:57:50;99013.66;;;11.36;65.90
38780;BME280;29273;49.962;9.768;2022-12-29T05:00:18;99013.91;;;11.34;65.99
38780;BME280;29273;49.962;9.768;2022-12-29T05:02:44;99002.69;;;11.32;65.98
38780;BME280;29273;49.962;9.768;2022-12-29T05:05:10;99005.34;;;11.32;65.96
38780;BME280;29273;49.962;9.768;2022-12-29T05:07:40;99009.63;;;11.33;66.11
38780;BME280;29273;49.962;9.768;2022-12-29T05:10:06;99012.28;;;11.33;66.00
38780;BME280;29273;49.962;9.768;2022-12-29T05:12:34;99006.75;;;11.35;66.02
38780;BME280;29273;49.962;9.768;2022-12-29T05:15:01;99012.06;;;11.35;66.16
38780;BME280;29273;49.962;9.768;2022-12-29T05:17:28;99015.28;;;11.37;66.08
38780;BME280;29273;49.962;9.768;2022-12-29T05:19:54;99024.84;;;11.38;65.94
38780;BME280;29273;49.962;9.768;2022-12-29T05:22:20;99022.22;;;11.38;66.17
38780;BME280;29273;49.962;9.768;2022-12-29T05:24:46;99014.59;;;11.41;66.22
38780;BME280;29273;49.962;9.768;2022-12-29T05:27:12;99023.34;;;11.42;66.21
38780;BME280;29273;49.962;9.768;2022-12-29T05:29:48;99026.59;;;11.44;66.22
38780;BME280;29273;49.962;9.768;2022-12-29T05:32:13;99024.75;;;11.44;65.95
38780;BME280;29273;49.962;9.768;2022-12-29T05:34:39;99030.63;;;11.46;65.77
38780;BME280;29273;49.962;9.768;2022-12-29T05:37:04;99038.38;;;11.48;65.52
38780;BME280;29273;49.962;9.768;2022-12-29T05:39:30;99040.56;;;11.51;65.65
38780;BME280;29273;49.962;9.768;2022-12-29T05:41:59;99031.13;;;11.55;65.47
38780;BME280;29273;49.962;9.768;2022-12-29T05:44:33;99039.44;;;11.59;65.59
38780;BME280;29273;49.962;9.768;2022-12-29T05:47:17;99041.63;;;11.62;65.50
38780;BME280;29273;49.962;9.768;2022-12-29T05:50:01;99029.78;;;11.64;65.51
38780;BME280;29273;49.962;9.768;2022-12-29T05:52:45;99026.66;;;11.68;65.45
38780;BME280;29273;49.962;9.768;2022-12-29T05:55:11;99029.44;;;11.73;65.45
38780;BME280;29273;49.962;9.768;2022-12-29T05:57:39;99023.91;;;11.74;64.87
38780;BME280;29273;49.962;9.768;2022-12-29T06:00:11;99028.72;;;11.77;64.97
38780;BME280;29273;49.962;9.768;2022-12-29T06:02:45;99019.06;;;11.83;64.86
38780;BME280;29273;49.962;9.768;2022-12-29T06:05:12;99019.06;;;11.83;64.21
38780;BME280;29273;49.962;9.768;2022-12-29T06:07:38;99016.31;;;11.90;64.67
38780;BME280;29273;49.962;9.768;2022-12-29T06:10:05;99017.94;;;11.91;64.24
38780;BME280;29273;49.962;9.768;2022-12-29T06:12:35;99016.69;;;11.93;63.94
38780;BME280;29273;49.962;9.768;2022-12-29T06:15:00;99011.94;;;11.95;63.76
38780;BME280;29273;49.962;9.768;2022-12-29T06:17:26;99012.56;;;11.97;63.09
38780;BME280;29273;49.962;9.768;2022-12-29T06:19:51;99011.84;;;12.02;63.64
38780;BME280;29273;49.962;9.768;2022-12-29T06:22:18;99017.16;;;12.02;62.64
38780;BME280;29273;49.962;9.768;2022-12-29T06:24:44;99006.88;;;12.06;62.90
38780;BME280;29273;49.962;9.768;2022-12-29T06:27:09;98998.09;;;12.05;62.11
38780;BME280;29273;49.962;9.768;2022-12-29T06:29:36;99009.66;;;12.11;62.68
38780;BME280;29273;49.962;9.768;2022-12-29T06:32:03;99005.28;;;12.16;63.06
38780;BME280;29273;49.962;9.768;2022-12-29T06:34:31;99016.91;;;12.15;62.01
38780;BME280;29273;49.962;9.768;2022-12-29T06:36:56;99013.81;;;12.18;62.12
38780;BME280;29273;49.962;9.768;2022-12-29T06:39:22;99011.72;;;12.20;62.41
38780;BME280;29273;49.962;9.768;2022-12-29T06:42:08;99012.88;;;12.25;62.31
38780;BME280;29273;49.962;9.768;2022-12-29T06:44:34;99012.09;;;12.24;61.73
38780;BME280;29273;49.962;9.768;2022-12-29T06:47:01;99010.81;;;12.27;61.96
38780;BME280;29273;49.962;9.768;2022-12-29T06:49:27;99015.88;;;12.28;61.83
38780;BME280;29273;49.962;9.768;2022-12-29T06:51:52;99017.50;;;12.29;62.07
38780;BME280;29273;49.962;9.768;2022-12-29T06:54:18;99012.75;;;12.31;61.96
38780;BME280;29273;49.962;9.768;2022-12-29T06:56:43;99008.03;;;12.33;62.07
38780;BME280;29273;49.962;9.768;2022-12-29T06:59:09;99013.91;;;12.35;61.73
38780;BME280;29273;49.962;9.768;2022-12-29T07:01:35;99021.41;;;12.38;61.76
38780;BME280;29273;49.962;9.768;2022-12-29T07:04:02;99014.28;;;12.39;61.44
38780;BME280;29273;49.962;9.768;2022-12-29T07:06:27;99011.34;;;12.40;61.37
38780;BME280;29273;49.962;9.768;2022-12-29T07:08:53;99020.94;;;12.42;61.27
38780;BME280;29273;49.962;9.768;2022-12-29T07:11:21;99025.78;;;12.45;61.69
38780;BME280;29273;49.962;9.768;2022-12-29T07:13:46;99032.13;;;12.44;61.27
38780;BME280;29273;49.962;9.768;2022-12-29T07:16:12;99029.25;;;12.45;60.73
38780;BME280;29273;49.962;9.768;2022-12-29T07:18:37;99023.94;;;12.45;61.32
38780;BME280;29273;49.962;9.768;2022-12-29T07:21:03;99028.00;;;12.48;61.39
38780;BME280;29273;49.962;9.768;2022-12-29T07:23:29;99024.28;;;12.49;61.13
38780;BME280;29273;49.962;9.768;2022-12-29T07:26:06;99014.03;;;12.52;60.85
38780;BME280;29273;49.962;9.768;2022-12-29T07:28:33;99015.63;;;12.53;61.56
38780;BME280;29273;49.962;9.768;2022-12-29T07:30:59;99020.13;;;12.53;61.47
38780;BME280;29273;49.962;9.768;2022-12-29T07:33:24;99012.41;;;12.51;60.97
38780;BME280;29273;49.962;9.768;2022-12-29T07:35:50;99014.81;;;12.53;61.07
38780;BME280;29273;49.962;9.768;2022-12-29T07:38:16;99013.75;;;12.54;61.16
38780;BME280;29273;49.962;9.768;2022-12-29T07:40:42;99018.50;;;12.52;60.84
38780;BME280;29273;49.962;9.768;2022-12-29T07:43:08;99018.97;;;12.49;60.52
38780;BME280;29273;49.962;9.768;2022-12-29T07:45:40;99020.03;;;12.48;60.53
38780;BME280;29273;49.962;9.768;2022-12-29T07:48:08;99014.47;;;12.49;60.62
38780;BME280;29273;49.962;9.768;2022-12-29T07:50:35;99010.75;;;12.50;60.71
38780;BME280;29273;49.962;9.768;2022-12-29T07:53:01;99013.66;;;12.49;61.09
38780;BME280;29273;49.962;9.768;2022-12-29T07:55:26;99015.41;;;12.43;60.25
38780;BME280;29273;49.962;9.768;2022-12-29T07:57:55;99015.84;;;12.52;60.83
38780;BME280;29273;49.962;9.768;2022-12-29T08:00:21;99017.38;;;12.48;60.41
38780;BME280;29273;49.962;9.768;2022-12-29T08:02:47;99011.22;;;12.47;60.25
38780;BME280;29273;49.962;9.768;2022-12-29T08:05:12;99017.38;;;12.48;60.16
38780;BME280;29273;49.962;9.768;2022-12-29T08:07:38;99016.91;;;12.51;60.49
38780;BME280;29273;49.962;9.768;2022-12-29T08:10:04;99020.69;;;12.55;60.64
38780;BME280;29273;49.962;9.768;2022-12-29T08:12:30;99027.31;;;12.52;60.18
38780;BME280;29273;49.962;9.768;2022-12-29T08:14:55;99030.84;;;12.58;60.73
38780;BME280;29273;49.962;9.768;2022-12-29T08:17:21;99028.78;;;12.60;61.20
38780;BME280;29273;49.962;9.768;2022-12-29T08:19:46;99037.06;;;12.64;61.63
38780;BME280;29273;49.962;9.768;2022-12-29T08:22:13;99031.53;;;12.65;60.81
38780;BME280;29273;49.962;9.768;2022-12-29T08:24:39;99030.50;;;12.66;60.78
38780;BME280;29273;49.962;9.768;2022-12-29T08:27:05;99031.88;;;12.69;61.00
38780;BME280;29273;49.962;9.768;2022-12-29T08:29:30;99023.09;;;12.68;60.57
38780;BME280;29273;49.962;9.768;2022-12-29T08:31:56;99034.06;;;12.72;60.66
38780;BME280;29273;49.962;9.768;2022-12-29T08:34:21;99031.72;;;12.75;60.92
38780;BME280;29273;49.962;9.768;2022-12-29T08:36:47;99031.72;;;12.75;59.95
38780;BME280;29273;49.962;9.768;2022-12-29T08:39:12;99037.97;;;12.81;60.60
38780;BME280;29273;49.962;9.768;2022-12-29T08:41:37;99042.00;;;12.84;59.75
38780;BME280;29273;49.962;9.768;2022-12-29T08:44:03;99036.69;;;12.84;59.29
38780;BME280;29273;49.962;9.768;2022-12-29T08:46:29;99044.28;;;12.92;59.86
38780;BME280;29273;49.962;9.768;2022-12-29T08:48:54;99049.94;;;12.95;59.57
38780;BME280;29273;49.962;9.768;2022-12-29T08:51:20;99043.59;;;12.96;59.36
38780;BME280;29273;49.962;9.768;2022-12-29T08:53:45;99053.06;;;13.04;60.22
38780;BME280;29273;49.962;9.768;2022-12-29T08:56:11;99048.88;;;13.08;59.64
38780;BME280;29273;49.962;9.768;2022-12-29T08:58:48;99045.16;;;13.09;58.77
38780;BME280;29273;49.962;9.768;2022-12-29T09:01:13;99045.84;;;13.17;59.33
38780;BME280;29273;49.962;9.768;2022-12-29T09:03:39;99045.59;;;13.18;58.68
38780;BME280;29273;49.962;9.768;2022-12-29T09:06:04;99051.81;;;13.24;58.20
38780;BME280;29273;49.962;9.768;2022-12-29T09:08:30;99045.22;;;13.26;57.83
38780;BME280;29273;49.962;9.768;2022-12-29T09:11:05;99035.59;;;13.37;60.23
38780;BME280;29273;49.962;9.768;2022-12-29T09:13:31;99053.41;;;13.37;57.99
38780;BME280;29273;49.962;9.768;2022-12-29T09:15:59;99041.59;;;13.44;59.43
38780;BME280;29273;49.962;9.768;2022-12-29T09:18:25;99045.28;;;13.43;57.79
38780;BME280;29273;49.962;9.768;2022-12-29T09:20:58;99053.44;;;13.54;59.84
38780;BME280;29273;49.962;9.768;2022-12-29T09:23:25;99045.38;;;13.48;57.66
38780;BME280;29273;49.962;9.768;2022-12-29T09:25:51;99050.22;;;13.51;56.93
38780;BME280;29273;49.962;9.768;2022-12-29T09:28:17;99046.28;;;13.54;57.30
38780;BME280;29273;49.962;9.768;2022-12-29T09:30:42;99047.09;;;13.55;56.80
38780;BME280;29273;49.962;9.768;2022-12-29T09:33:07;99054.34;;;13.59;56.78
38780;BME280;29273;49.962;9.768;2022-12-29T09:35:33;99042.41;;;13.62;55.80
38780;BME280;29273;49.962;9.768;2022-12-29T09:37:58;99045.38;;;13.65;56.32
38780;BME280;29273;49.962;9.768;2022-12-29T09:40:30;99049.38;;;13.80;58.88
38780;BME280;29273;49.962;9.768;2022-12-29T09:43:17;99051.00;;;13.81;58.33
38780;BME280;29273;49.962;9.768;2022-12-29T09:45:47;99056.31;;;13.81;56.11
38780;BME280;29273;49.962;9.768;2022-12-29T09:48:24;99050.59;;;13.89;57.38
38780;BME280;29273;49.962;9.768;2022-12-29T09:50:56;99048.81;;;13.95;57.23
38780;BME280;29273;49.962;9.768;2022-12-29T09:53:35;99042.44;;;13.96;56.87
38780;BME280;29273;49.962;9.768;2022-12-29T09:56:05;99045.59;;;13.93;54.36
38780;BME280;29273;49.962;9.768;2022-12-29T09:58:39;99039.63;;;14.02;57.28
38780;BME280;29273;49.962;9.768;2022-12-29T10:01:29;99042.03;;;14.04;56.17
38780;BME280;29273;49.962;9.768;2022-12-29T10:03:57;99043.78;;;13.98;54.49
38780;BME280;29273;49.962;9.768;2022-12-29T10:06:34;99045.25;;;14.06;54.85
38780;BME280;29273;49.962;9.768;2022-12-29T10:09:14;99051.94;;;14.09;55.99
38780;BME280;29273;49.962;9.768;2022-12-29T10:17:27;99037.03;;;14.07;56.89
38780;BME280;29273;49.962;9.768;2022-12-29T10:20:10;99036.78;;;14.09;56.06
38780;BME280;29273;49.962;9.768;2022-12-29T10:25:31;99052.53;;;14.11;56.17
38780;BME280;29273;49.962;9.768;2022-12-29T10:28:01;99041.03;;;14.10;55.52
38780;BME280;29273;49.962;9.768;2022-12-29T10:30:29;99042.84;;;14.04;54.21
38780;BME280;29273;49.962;9.768;2022-12-29T10:32:58;99039.22;;;14.11;55.07
38780;BME280;29273;49.962;9.768;2022-12-29T10:35:31;99035.47;;;14.12;54.85
38780;BME280;29273;49.962;9.768;2022-12-29T10:40:58;99056.22;;;14.10;56.47
38780;BME280;29273;49.962;9.768;2022-12-29T10:43:29;99039.22;;;14.11;56.20
38780;BME280;29273;49.962;9.768;2022-12-29T10:45:58;99034.91;;;14.10;55.54
38780;BME280;29273;49.962;9.768;2022-12-29T10:48:30;99033.88;;;14.11;56.35
38780;BME280;29273;49.962;9.768;2022-12-29T10:50:57;99028.50;;;14.05;55.22
38780;BME280;29273;49.962;9.768;2022-12-29T10:56:39;99018.63;;;14.06;55.71
38780;BME280;29273;49.962;9.768;2022-12-29T10:59:29;99034.28;;;14.02;55.67
38780;BME280;29273;49.962;9.768;2022-12-29T11:02:20;99027.34;;;14.01;54.75
38780;BME280;29273;49.962;9.768;2022-12-29T11:05:13;99030.81;;;14.02;56.74
38780;BME280;29273;49.962;9.768;2022-12-29T11:07:47;99028.13;;;14.02;55.07
38780;BME280;29273;49.962;9.768;2022-12-29T11:12:57;99027.03;;;13.98;54.50
38780;BME280;29273;49.962;9.768;2022-12-29T11:15:23;99037.91;;;13.96;54.68
38780;BME280;29273;49.962;9.768;2022-12-29T11:17:51;99023.22;;;13.94;53.57
38780;BME280;29273;49.962;9.768;2022-12-29T11:20:37;99033.94;;;13.99;55.67
38780;BME280;29273;49.962;9.768;2022-12-29T11:23:05;99037.91;;;13.96;54.69
38780;BME280;29273;49.962;9.768;2022-12-29T11:25:45;99042.69;;;13.94;55.39
38780;BME280;29273;49.962;9.768;2022-12-29T11:28:15;99036.59;;;13.99;55.96
38780;BME280;29273;49.962;9.768;2022-12-29T11:30:42;99039.78;;;13.96;55.22
38780;BME280;29273;49.962;9.768;2022-12-29T11:33:08;99027.28;;;13.96;55.24
38780;BME280;29273;49.962;9.768;2022-12-29T11:35:42;99027.81;;;13.98;56.85
38780;BME280;29273;49.962;9.768;2022-12-29T11:38:24;99041.84;;;13.94;56.57
38780;BME280;29273;49.962;9.768;2022-12-29T11:40:51;99034.63;;;13.89;55.63
38780;BME280;29273;49.962;9.768;2022-12-29T11:43:26;99036.78;;;13.92;56.45
38780;BME280;29273;49.962;9.768;2022-12-29T11:45:55;99043.09;;;13.86;56.00
38780;BME280;29273;49.962;9.768;2022-12-29T11:48:22;99053.25;;;13.89;57.06
38780;BME280;29273;49.962;9.768;2022-12-29T11:50:56;99056.00;;;13.94;57.86
38780;BME280;29273;49.962;9.768;2022-12-29T11:53:27;99060.16;;;13.90;57.37
38780;BME280;29273;49.962;9.768;2022-12-29T11:56:15;99082.53;;;13.89;58.42
38780;BME280;29273;49.962;9.768;2022-12-29T11:58:41;99080.59;;;13.84;58.57
38780;BME280;29273;49.962;9.768;2022-12-29T12:01:42;99109.22;;;13.77;59.15
38780;BME280;29273;49.962;9.768;2022-12-29T12:04:14;99131.38;;;13.83;59.45
38780;BME280;29273;49.962;9.768;2022-12-29T12:07:12;99117.66;;;13.74;59.82
38780;BME280;29273;49.962;9.768;2022-12-29T12:09:48;99102.66;;;13.68;59.90
38780;BME280;29273;49.962;9.768;2022-12-29T12:12:23;99097.16;;;13.58;59.12
38780;BME280;29273;49.962;9.768;2022-12-29T12:14:54;99096.75;;;13.49;58.45
38780;BME280;29273;49.962;9.768;2022-12-29T12:17:50;99113.53;;;13.38;58.16
38780;BME280;29273;49.962;9.768;2022-12-29T12:28:24;99130.81;;;13.00;59.05
38780;BME280;29273;49.962;9.768;2022-12-29T12:30:55;99133.50;;;12.88;59.46
38780;BME280;29273;49.962;9.768;2022-12-29T12:33:27;99102.53;;;12.82;59.93
38780;BME280;29273;49.962;9.768;2022-12-29T12:38:48;99112.84;;;12.66;60.93
38780;BME280;29273;49.962;9.768;2022-12-29T12:41:46;99095.63;;;12.69;60.85
38780;BME280;29273;49.962;9.768;2022-12-29T12:44:24;99099.00;;;12.64;61.02
38780;BME280;29273;49.962;9.768;2022-12-29T12:47:15;99090.31;;;12.57;61.42
38780;BME280;29273;49.962;9.768;2022-12-29T12:50:08;99098.06;;;12.58;61.49
38780;BME280;29273;49.962;9.768;2022-12-29T12:52:55;99094.38;;;12.59;62.31
38780;BME280;29273;49.962;9.768;2022-12-29T12:58:42;99092.75;;;12.58;62.50
38780;BME280;29273;49.962;9.768;2022-12-29T13:06:58;99096.69;;;12.56;61.45
38780;BME280;29273;49.962;9.768;2022-12-29T13:23:50;99093.44;;;12.66;61.64
38780;BME280;29273;49.962;9.768;2022-12-29T13:26:35;99096.91;;;12.66;61.52
38780;BME280;29273;49.962;9.768;2022-12-29T13:29:15;99091.38;;;12.68;61.61
38780;BME280;29273;49.962;9.768;2022-12-29T13:31:52;99103.59;;;12.69;61.50
38780;BME280;29273;49.962;9.768;2022-12-29T13:37:01;99103.59;;;12.69;61.69
38780;BME280;29273;49.962;9.768;2022-12-29T13:39:33;99093.91;;;12.74;61.85
38780;BME280;29273;49.962;9.768;2022-12-29T13:42:01;99094.13;;;12.73;62.00
38780;BME280;29273;49.962;9.768;2022-12-29T13:44:32;99098.75;;;12.77;62.27
38780;BME280;29273;49.962;9.768;2022-12-29T13:47:12;99102.44;;;12.76;62.06
38780;BME280;29273;49.962;9.768;2022-12-29T13:49:40;99094.81;;;12.68;61.06
38780;BME280;29273;49.962;9.768;2022-12-29T13:55:08;99109.38;;;12.77;62.00
38780;BME280;29273;49.962;9.768;2022-12-29T13:57:50;99121.72;;;12.84;62.30
38780;BME280;29273;49.962;9.768;2022-12-29T14:00:23;99115.13;;;12.86;61.80
38780;BME280;29273;49.962;9.768;2022-12-29T14:06:23;99110.38;;;12.88;62.25
38780;BME280;29273;49.962;9.768;2022-12-29T14:08:57;99106.00;;;12.94;62.23
38780;BME280;29273;49.962;9.768;2022-12-29T14:11:31;99120.75;;;13.02;62.49
38780;BME280;29273;49.962;9.768;2022-12-29T14:13:57;99125.75;;;12.98;62.16
38780;BME280;29273;49.962;9.768;2022-12-29T14:16:30;99121.56;;;13.02;62.47
38780;BME280;29273;49.962;9.768;2022-12-29T14:19:03;99118.91;;;13.02;62.35
38780;BME280;29273;49.962;9.768;2022-12-29T14:21:30;99119.97;;;13.01;62.20
38780;BME280;29273;49.962;9.768;2022-12-29T14:34:47;99108.78;;;12.99;60.96
38780;BME280;29273;49.962;9.768;2022-12-29T14:37:32;99113.84;;;13.01;61.83
38780;BME280;29273;49.962;9.768;2022-12-29T14:42:46;99123.78;;;12.93;61.30
38780;BME280;29273;49.962;9.768;2022-12-29T14:47:39;99120.44;;;12.86;61.06
38780;BME280;29273;49.962;9.768;2022-12-29T14:50:14;99123.09;;;12.86;60.90
38780;BME280;29273;49.962;9.768;2022-12-29T14:52:47;99119.06;;;12.84;61.13
38780;BME280;29273;49.962;9.768;2022-12-29T14:57:49;99128.31;;;12.81;61.33
38780;BME280;29273;49.962;9.768;2022-12-29T15:00:19;99131.19;;;12.80;61.26
38780;BME280;29273;49.962;9.768;2022-12-29T15:02:54;99135.94;;;12.77;60.52
38780;BME280;29273;49.962;9.768;2022-12-29T15:05:30;99149.56;;;12.81;61.39
38780;BME280;29273;49.962;9.768;2022-12-29T15:07:57;99152.81;;;12.59;62.05